sensor_id;sensor_type;location;lat;lon;timestamp;P1;durP1;ratioP1;P2;durP2;ratioP2
8803;SDS011;4438;50.890;4.726;2024-03-07T00:00:44;10.63;;;9.57;;
8803;SDS011;4438;50.890;4.726;2024-03-07T00:03:11;12.70;;;9.80;;
8803;SDS011;4438;50.890;4.726;2024-03-07T00:05:37;11.17;;;9.97;;
8803;SDS011;4438;50.890;4.726;2024-03-07T00:08:04;11.60;;;10.00;;
8803;SDS011;4438;50.890;4.726;2024-03-07T00:10:31;11.43;;;10.17;;
8803;SDS011;4438;50.890;4.726;2024-03-07T00:12:57;10.90;;;9.80;;
8803;SDS011;4438;50.890;4.726;2024-03-07T00:15:23;11.60;;;10.40;;
8803;SDS011;4438;50.890;4.726;2024-03-07T00:17:49;10.57;;;9.43;;
8803;SDS011;4438;50.890;4.726;2024-03-07T00:20:15;11.03;;;9.83;;
8803;SDS011;4438;50.890;4.726;2024-03-07T00:22:44;10.37;;;9.23;;
8803;SDS011;4438;50.890;4.726;2024-03-07T00:25:10;12.60;;;10.37;;
8803;SDS011;4438;50.890;4.726;2024-03-07T00:27:38;11.03;;;9.83;;
8803;SDS011;4438;50.890;4.726;2024-03-07T00:30:08;12.13;;;10.73;;
8803;SDS011;4438;50.890;4.726;2024-03-07T00:32:34;13.10;;;11.43;;
8803;SDS011;4438;50.890;4.726;2024-03-07T00:35:04;14.83;;;12.17;;
8803;SDS011;4438;50.890;4.726;2024-03-07T00:37:31;12.57;;;10.87;;
8803;SDS011;4438;50.890;4.726;2024-03-07T00:39:57;12.67;;;11.03;;
8803;SDS011;4438;50.890;4.726;2024-03-07T00:42:23;12.07;;;10.73;;
8803;SDS011;4438;50.890;4.726;2024-03-07T00:44:49;10.83;;;9.70;;
8803;SDS011;4438;50.890;4.726;2024-03-07T00:47:15;10.90;;;9.80;;
8803;SDS011;4438;50.890;4.726;2024-03-07T00:49:43;11.73;;;10.40;;
8803;SDS011;4438;50.890;4.726;2024-03-07T00:52:11;11.73;;;10.53;;
8803;SDS011;4438;50.890;4.726;2024-03-07T00:54:37;11.20;;;9.97;;
8803;SDS011;4438;50.890;4.726;2024-03-07T00:57:04;12.07;;;10.43;;
8803;SDS011;4438;50.890;4.726;2024-03-07T00:59:30;11.13;;;10.03;;
8803;SDS011;4438;50.890;4.726;2024-03-07T01:01:56;11.30;;;10.00;;
8803;SDS011;4438;50.890;4.726;2024-03-07T01:04:22;11.50;;;10.30;;
8803;SDS011;4438;50.890;4.726;2024-03-07T01:06:48;12.63;;;10.20;;
8803;SDS011;4438;50.890;4.726;2024-03-07T01:09:14;11.40;;;9.73;;
8803;SDS011;4438;50.890;4.726;2024-03-07T01:11:42;11.73;;;10.30;;
8803;SDS011;4438;50.890;4.726;2024-03-07T01:14:09;14.03;;;11.20;;
8803;SDS011;4438;50.890;4.726;2024-03-07T01:16:35;15.47;;;12.03;;
8803;SDS011;4438;50.890;4.726;2024-03-07T01:19:01;13.23;;;10.87;;
8803;SDS011;4438;50.890;4.726;2024-03-07T01:21:30;15.27;;;12.87;;
8803;SDS011;4438;50.890;4.726;2024-03-07T01:23:56;14.80;;;13.00;;
8803;SDS011;4438;50.890;4.726;2024-03-07T01:26:24;14.97;;;12.37;;
8803;SDS011;4438;50.890;4.726;2024-03-07T01:28:50;13.83;;;12.00;;
8803;SDS011;4438;50.890;4.726;2024-03-07T01:31:17;18.13;;;13.63;;
8803;SDS011;4438;50.890;4.726;2024-03-07T01:33:43;16.07;;;13.13;;
8803;SDS011;4438;50.890;4.726;2024-03-07T01:36:09;15.40;;;12.90;;
8803;SDS011;4438;50.890;4.726;2024-03-07T01:38:35;16.20;;;13.53;;
8803;SDS011;4438;50.890;4.726;2024-03-07T01:41:01;14.67;;;12.70;;
8803;SDS011;4438;50.890;4.726;2024-03-07T01:43:28;14.13;;;12.23;;
8803;SDS011;4438;50.890;4.726;2024-03-07T01:45:56;15.47;;;12.40;;
8803;SDS011;4438;50.890;4.726;2024-03-07T01:48:26;15.03;;;12.53;;
8803;SDS011;4438;50.890;4.726;2024-03-07T01:50:56;15.50;;;12.50;;
8803;SDS011;4438;50.890;4.726;2024-03-07T01:53:23;14.63;;;12.10;;
8803;SDS011;4438;50.890;4.726;2024-03-07T01:55:50;14.23;;;12.73;;
8803;SDS011;4438;50.890;4.726;2024-03-07T01:58:18;18.20;;;14.60;;
8803;SDS011;4438;50.890;4.726;2024-03-07T02:00:44;15.47;;;13.03;;
8803;SDS011;4438;50.890;4.726;2024-03-07T02:03:11;17.00;;;14.17;;
8803;SDS011;4438;50.890;4.726;2024-03-07T02:05:38;15.07;;;13.43;;
8803;SDS011;4438;50.890;4.726;2024-03-07T02:08:05;16.07;;;12.90;;
8803;SDS011;4438;50.890;4.726;2024-03-07T02:10:31;16.53;;;13.93;;
8803;SDS011;4438;50.890;4.726;2024-03-07T02:12:57;16.90;;;13.23;;
8803;SDS011;4438;50.890;4.726;2024-03-07T02:15:23;15.03;;;13.33;;
8803;SDS011;4438;50.890;4.726;2024-03-07T02:17:49;18.43;;;14.53;;
8803;SDS011;4438;50.890;4.726;2024-03-07T02:20:15;16.53;;;13.70;;
8803;SDS011;4438;50.890;4.726;2024-03-07T02:22:41;18.70;;;15.17;;
8803;SDS011;4438;50.890;4.726;2024-03-07T02:25:08;20.57;;;15.37;;
8803;SDS011;4438;50.890;4.726;2024-03-07T02:27:37;19.67;;;14.83;;
8803;SDS011;4438;50.890;4.726;2024-03-07T02:30:04;18.03;;;14.70;;
8803;SDS011;4438;50.890;4.726;2024-03-07T02:32:33;17.47;;;14.20;;
8803;SDS011;4438;50.890;4.726;2024-03-07T02:34:59;18.37;;;14.60;;
8803;SDS011;4438;50.890;4.726;2024-03-07T02:37:25;16.83;;;13.50;;
8803;SDS011;4438;50.890;4.726;2024-03-07T02:39:52;18.27;;;14.30;;
8803;SDS011;4438;50.890;4.726;2024-03-07T02:42:18;19.87;;;15.07;;
8803;SDS011;4438;50.890;4.726;2024-03-07T02:44:44;17.27;;;14.50;;
8803;SDS011;4438;50.890;4.726;2024-03-07T02:47:10;17.90;;;14.50;;
8803;SDS011;4438;50.890;4.726;2024-03-07T02:49:36;16.23;;;13.20;;
8803;SDS011;4438;50.890;4.726;2024-03-07T02:52:03;17.17;;;13.90;;
8803;SDS011;4438;50.890;4.726;2024-03-07T02:54:32;17.83;;;13.37;;
8803;SDS011;4438;50.890;4.726;2024-03-07T02:56:58;18.27;;;14.63;;
8803;SDS011;4438;50.890;4.726;2024-03-07T02:59:25;16.33;;;13.87;;
8803;SDS011;4438;50.890;4.726;2024-03-07T03:01:51;21.80;;;16.20;;
8803;SDS011;4438;50.890;4.726;2024-03-07T03:04:17;20.03;;;15.97;;
8803;SDS011;4438;50.890;4.726;2024-03-07T03:06:43;19.93;;;16.33;;
8803;SDS011;4438;50.890;4.726;2024-03-07T03:09:10;20.33;;;15.10;;
8803;SDS011;4438;50.890;4.726;2024-03-07T03:11:42;17.97;;;15.10;;
8803;SDS011;4438;50.890;4.726;2024-03-07T03:14:08;19.27;;;15.30;;
8803;SDS011;4438;50.890;4.726;2024-03-07T03:16:35;17.63;;;14.67;;
8803;SDS011;4438;50.890;4.726;2024-03-07T03:19:02;16.23;;;13.10;;
8803;SDS011;4438;50.890;4.726;2024-03-07T03:21:28;14.87;;;12.17;;
8803;SDS011;4438;50.890;4.726;2024-03-07T03:23:54;16.37;;;13.87;;
8803;SDS011;4438;50.890;4.726;2024-03-07T03:26:20;14.90;;;13.00;;
8803;SDS011;4438;50.890;4.726;2024-03-07T03:28:47;17.20;;;13.87;;
8803;SDS011;4438;50.890;4.726;2024-03-07T03:31:13;16.77;;;13.20;;
8803;SDS011;4438;50.890;4.726;2024-03-07T03:33:39;17.73;;;13.63;;
8803;SDS011;4438;50.890;4.726;2024-03-07T03:36:08;15.07;;;12.67;;
8803;SDS011;4438;50.890;4.726;2024-03-07T03:38:36;16.60;;;12.90;;
8803;SDS011;4438;50.890;4.726;2024-03-07T03:41:02;17.57;;;14.23;;
8803;SDS011;4438;50.890;4.726;2024-03-07T03:43:30;16.53;;;13.80;;
8803;SDS011;4438;50.890;4.726;2024-03-07T03:45:57;18.23;;;14.97;;
8803;SDS011;4438;50.890;4.726;2024-03-07T03:48:23;17.30;;;14.00;;
8803;SDS011;4438;50.890;4.726;2024-03-07T03:50:49;17.53;;;14.23;;
8803;SDS011;4438;50.890;4.726;2024-03-07T03:53:15;17.00;;;13.50;;
8803;SDS011;4438;50.890;4.726;2024-03-07T03:55:42;18.00;;;14.07;;
8803;SDS011;4438;50.890;4.726;2024-03-07T03:58:09;18.80;;;14.77;;
8803;SDS011;4438;50.890;4.726;2024-03-07T04:00:35;18.70;;;14.30;;
8803;SDS011;4438;50.890;4.726;2024-03-07T04:03:01;20.60;;;15.60;;
8803;SDS011;4438;50.890;4.726;2024-03-07T04:05:27;20.47;;;15.07;;
8803;SDS011;4438;50.890;4.726;2024-03-07T04:07:53;22.37;;;16.83;;
8803;SDS011;4438;50.890;4.726;2024-03-07T04:10:21;24.17;;;16.87;;
8803;SDS011;4438;50.890;4.726;2024-03-07T04:12:47;21.27;;;16.67;;
8803;SDS011;4438;50.890;4.726;2024-03-07T04:15:14;25.37;;;17.97;;
8803;SDS011;4438;50.890;4.726;2024-03-07T04:17:41;22.30;;;17.63;;
8803;SDS011;4438;50.890;4.726;2024-03-07T04:20:08;24.77;;;17.67;;
8803;SDS011;4438;50.890;4.726;2024-03-07T04:22:35;25.33;;;18.50;;
8803;SDS011;4438;50.890;4.726;2024-03-07T04:25:05;22.57;;;17.47;;
8803;SDS011;4438;50.890;4.726;2024-03-07T04:27:32;22.17;;;17.60;;
8803;SDS011;4438;50.890;4.726;2024-03-07T04:29:59;23.60;;;18.17;;
8803;SDS011;4438;50.890;4.726;2024-03-07T04:32:28;22.40;;;18.23;;
8803;SDS011;4438;50.890;4.726;2024-03-07T04:34:54;24.13;;;19.10;;
8803;SDS011;4438;50.890;4.726;2024-03-07T04:37:22;26.73;;;20.77;;
8803;SDS011;4438;50.890;4.726;2024-03-07T04:39:48;27.87;;;20.47;;
8803;SDS011;4438;50.890;4.726;2024-03-07T04:42:14;24.70;;;19.17;;
8803;SDS011;4438;50.890;4.726;2024-03-07T04:44:40;27.10;;;19.93;;
8803;SDS011;4438;50.890;4.726;2024-03-07T04:47:07;27.50;;;20.43;;
8803;SDS011;4438;50.890;4.726;2024-03-07T04:49:33;29.10;;;20.67;;
8803;SDS011;4438;50.890;4.726;2024-03-07T04:52:00;30.67;;;21.63;;
8803;SDS011;4438;50.890;4.726;2024-03-07T04:54:27;30.40;;;22.27;;
8803;SDS011;4438;50.890;4.726;2024-03-07T04:56:53;31.50;;;22.37;;
8803;SDS011;4438;50.890;4.726;2024-03-07T04:59:20;30.10;;;22.07;;
8803;SDS011;4438;50.890;4.726;2024-03-07T05:01:47;32.60;;;22.60;;
8803;SDS011;4438;50.890;4.726;2024-03-07T05:04:14;34.93;;;24.30;;
8803;SDS011;4438;50.890;4.726;2024-03-07T05:06:40;36.90;;;25.83;;
8803;SDS011;4438;50.890;4.726;2024-03-07T05:09:07;34.07;;;24.93;;
8803;SDS011;4438;50.890;4.726;2024-03-07T05:11:34;34.43;;;24.77;;
8803;SDS011;4438;50.890;4.726;2024-03-07T05:14:01;36.33;;;25.87;;
8803;SDS011;4438;50.890;4.726;2024-03-07T05:16:27;38.33;;;26.63;;
8803;SDS011;4438;50.890;4.726;2024-03-07T05:18:53;38.27;;;25.67;;
8803;SDS011;4438;50.890;4.726;2024-03-07T05:21:23;36.97;;;26.50;;
8803;SDS011;4438;50.890;4.726;2024-03-07T05:24:02;35.83;;;26.13;;
8803;SDS011;4438;50.890;4.726;2024-03-07T05:26:29;39.33;;;26.87;;
8803;SDS011;4438;50.890;4.726;2024-03-07T05:29:02;41.10;;;28.30;;
8803;SDS011;4438;50.890;4.726;2024-03-07T05:31:35;41.97;;;27.10;;
8803;SDS011;4438;50.890;4.726;2024-03-07T05:34:02;42.23;;;27.73;;
8803;SDS011;4438;50.890;4.726;2024-03-07T05:36:31;41.60;;;29.60;;
8803;SDS011;4438;50.890;4.726;2024-03-07T05:38:58;42.63;;;28.50;;
8803;SDS011;4438;50.890;4.726;2024-03-07T05:41:33;44.90;;;29.67;;
8803;SDS011;4438;50.890;4.726;2024-03-07T05:43:59;48.30;;;31.50;;
8803;SDS011;4438;50.890;4.726;2024-03-07T05:46:25;43.03;;;30.23;;
8803;SDS011;4438;50.890;4.726;2024-03-07T05:48:52;45.10;;;30.20;;
8803;SDS011;4438;50.890;4.726;2024-03-07T05:51:24;43.10;;;30.27;;
8803;SDS011;4438;50.890;4.726;2024-03-07T05:53:50;41.77;;;30.03;;
8803;SDS011;4438;50.890;4.726;2024-03-07T05:56:17;44.97;;;30.07;;
8803;SDS011;4438;50.890;4.726;2024-03-07T05:58:43;46.60;;;30.47;;
8803;SDS011;4438;50.890;4.726;2024-03-07T06:01:09;48.50;;;32.63;;
8803;SDS011;4438;50.890;4.726;2024-03-07T06:03:36;52.73;;;33.80;;
8803;SDS011;4438;50.890;4.726;2024-03-07T06:06:03;52.27;;;34.33;;
8803;SDS011;4438;50.890;4.726;2024-03-07T06:08:32;51.03;;;34.60;;
8803;SDS011;4438;50.890;4.726;2024-03-07T06:10:58;52.63;;;34.77;;
8803;SDS011;4438;50.890;4.726;2024-03-07T06:13:24;50.73;;;34.77;;
8803;SDS011;4438;50.890;4.726;2024-03-07T06:15:50;53.47;;;34.73;;
8803;SDS011;4438;50.890;4.726;2024-03-07T06:18:16;56.93;;;35.63;;
8803;SDS011;4438;50.890;4.726;2024-03-07T06:20:43;57.73;;;36.73;;
8803;SDS011;4438;50.890;4.726;2024-03-07T06:23:09;62.47;;;38.80;;
8803;SDS011;4438;50.890;4.726;2024-03-07T06:25:41;59.60;;;37.40;;
8803;SDS011;4438;50.890;4.726;2024-03-07T06:28:16;54.03;;;35.07;;
8803;SDS011;4438;50.890;4.726;2024-03-07T06:30:46;57.63;;;36.30;;
8803;SDS011;4438;50.890;4.726;2024-03-07T06:33:13;60.00;;;37.77;;
8803;SDS011;4438;50.890;4.726;2024-03-07T06:35:39;61.83;;;37.90;;
8803;SDS011;4438;50.890;4.726;2024-03-07T06:38:06;61.80;;;39.47;;
8803;SDS011;4438;50.890;4.726;2024-03-07T06:40:33;62.50;;;38.87;;
8803;SDS011;4438;50.890;4.726;2024-03-07T06:42:59;64.80;;;40.23;;
8803;SDS011;4438;50.890;4.726;2024-03-07T06:45:26;68.10;;;40.63;;
8803;SDS011;4438;50.890;4.726;2024-03-07T06:47:52;67.60;;;41.10;;
8803;SDS011;4438;50.890;4.726;2024-03-07T06:50:18;65.47;;;40.80;;
8803;SDS011;4438;50.890;4.726;2024-03-07T06:52:47;67.30;;;39.90;;
8803;SDS011;4438;50.890;4.726;2024-03-07T06:55:17;73.47;;;41.33;;
8803;SDS011;4438;50.890;4.726;2024-03-07T06:57:46;74.60;;;42.43;;
8803;SDS011;4438;50.890;4.726;2024-03-07T07:00:13;76.07;;;41.43;;
8803;SDS011;4438;50.890;4.726;2024-03-07T07:02:44;76.93;;;42.30;;
8803;SDS011;4438;50.890;4.726;2024-03-07T07:05:10;74.00;;;41.40;;
8803;SDS011;4438;50.890;4.726;2024-03-07T07:07:40;77.47;;;40.77;;
8803;SDS011;4438;50.890;4.726;2024-03-07T07:10:07;75.70;;;41.50;;
8803;SDS011;4438;50.890;4.726;2024-03-07T07:12:36;71.20;;;37.97;;
8803;SDS011;4438;50.890;4.726;2024-03-07T07:15:02;74.37;;;40.10;;
8803;SDS011;4438;50.890;4.726;2024-03-07T07:17:29;74.87;;;40.80;;
8803;SDS011;4438;50.890;4.726;2024-03-07T07:19:58;78.93;;;41.17;;
8803;SDS011;4438;50.890;4.726;2024-03-07T07:22:25;72.80;;;39.10;;
8803;SDS011;4438;50.890;4.726;2024-03-07T07:24:52;70.60;;;39.87;;
8803;SDS011;4438;50.890;4.726;2024-03-07T07:27:18;69.07;;;39.27;;
8803;SDS011;4438;50.890;4.726;2024-03-07T07:29:44;74.90;;;40.53;;
8803;SDS011;4438;50.890;4.726;2024-03-07T07:32:10;76.30;;;40.83;;
8803;SDS011;4438;50.890;4.726;2024-03-07T07:34:37;75.23;;;40.70;;
8803;SDS011;4438;50.890;4.726;2024-03-07T07:37:07;67.40;;;39.23;;
8803;SDS011;4438;50.890;4.726;2024-03-07T07:39:34;66.23;;;39.20;;
8803;SDS011;4438;50.890;4.726;2024-03-07T07:42:00;61.47;;;37.53;;
8803;SDS011;4438;50.890;4.726;2024-03-07T07:44:27;69.03;;;38.43;;
8803;SDS011;4438;50.890;4.726;2024-03-07T07:46:54;66.83;;;37.43;;
8803;SDS011;4438;50.890;4.726;2024-03-07T07:49:20;64.30;;;37.70;;
8803;SDS011;4438;50.890;4.726;2024-03-07T07:51:46;59.80;;;37.07;;
8803;SDS011;4438;50.890;4.726;2024-03-07T07:54:14;75.17;;;40.47;;
8803;SDS011;4438;50.890;4.726;2024-03-07T07:56:40;67.97;;;39.13;;
8803;SDS011;4438;50.890;4.726;2024-03-07T07:59:06;68.43;;;39.77;;
8803;SDS011;4438;50.890;4.726;2024-03-07T08:01:34;66.33;;;39.30;;
8803;SDS011;4438;50.890;4.726;2024-03-07T08:04:00;67.03;;;39.03;;
8803;SDS011;4438;50.890;4.726;2024-03-07T08:06:27;68.00;;;40.20;;
8803;SDS011;4438;50.890;4.726;2024-03-07T08:08:53;66.73;;;37.40;;
8803;SDS011;4438;50.890;4.726;2024-03-07T08:11:19;69.13;;;40.00;;
8803;SDS011;4438;50.890;4.726;2024-03-07T08:13:45;65.13;;;39.60;;
8803;SDS011;4438;50.890;4.726;2024-03-07T08:16:15;63.60;;;38.27;;
8803;SDS011;4438;50.890;4.726;2024-03-07T08:18:42;66.57;;;39.33;;
8803;SDS011;4438;50.890;4.726;2024-03-07T08:21:08;68.27;;;39.20;;
8803;SDS011;4438;50.890;4.726;2024-03-07T08:23:36;60.93;;;38.03;;
8803;SDS011;4438;50.890;4.726;2024-03-07T08:26:02;65.90;;;39.60;;
8803;SDS011;4438;50.890;4.726;2024-03-07T08:28:30;67.57;;;38.90;;
8803;SDS011;4438;50.890;4.726;2024-03-07T08:30:56;66.77;;;40.63;;
8803;SDS011;4438;50.890;4.726;2024-03-07T08:33:24;67.13;;;40.80;;
8803;SDS011;4438;50.890;4.726;2024-03-07T08:35:51;75.33;;;42.73;;
8803;SDS011;4438;50.890;4.726;2024-03-07T08:38:18;68.67;;;40.47;;
8803;SDS011;4438;50.890;4.726;2024-03-07T08:40:45;68.90;;;39.70;;
8803;SDS011;4438;50.890;4.726;2024-03-07T08:43:11;67.50;;;41.10;;
8803;SDS011;4438;50.890;4.726;2024-03-07T08:45:37;65.53;;;39.47;;
8803;SDS011;4438;50.890;4.726;2024-03-07T08:48:03;67.00;;;40.17;;
8803;SDS011;4438;50.890;4.726;2024-03-07T08:50:31;59.07;;;38.00;;
8803;SDS011;4438;50.890;4.726;2024-03-07T08:52:59;60.77;;;39.97;;
8803;SDS011;4438;50.890;4.726;2024-03-07T08:55:26;63.20;;;39.47;;
8803;SDS011;4438;50.890;4.726;2024-03-07T08:57:52;61.47;;;38.47;;
8803;SDS011;4438;50.890;4.726;2024-03-07T09:00:18;64.40;;;40.53;;
8803;SDS011;4438;50.890;4.726;2024-03-07T09:02:58;67.83;;;41.20;;
8803;SDS011;4438;50.890;4.726;2024-03-07T09:05:24;61.63;;;39.67;;
8803;SDS011;4438;50.890;4.726;2024-03-07T09:07:51;60.27;;;38.90;;
8803;SDS011;4438;50.890;4.726;2024-03-07T09:10:18;61.60;;;39.23;;
8803;SDS011;4438;50.890;4.726;2024-03-07T09:12:44;62.60;;;38.83;;
8803;SDS011;4438;50.890;4.726;2024-03-07T09:15:11;58.13;;;38.40;;
8803;SDS011;4438;50.890;4.726;2024-03-07T09:17:37;59.20;;;38.73;;
8803;SDS011;4438;50.890;4.726;2024-03-07T09:20:04;53.20;;;36.73;;
8803;SDS011;4438;50.890;4.726;2024-03-07T09:22:31;55.67;;;37.67;;
8803;SDS011;4438;50.890;4.726;2024-03-07T09:24:57;56.67;;;37.97;;
8803;SDS011;4438;50.890;4.726;2024-03-07T09:27:23;56.93;;;37.50;;
8803;SDS011;4438;50.890;4.726;2024-03-07T09:29:50;51.97;;;36.57;;
8803;SDS011;4438;50.890;4.726;2024-03-07T09:32:17;55.23;;;37.60;;
8803;SDS011;4438;50.890;4.726;2024-03-07T09:34:43;57.17;;;37.23;;
8803;SDS011;4438;50.890;4.726;2024-03-07T09:37:09;53.17;;;37.03;;
8803;SDS011;4438;50.890;4.726;2024-03-07T09:39:35;54.03;;;35.67;;
8803;SDS011;4438;50.890;4.726;2024-03-07T09:42:02;50.30;;;35.67;;
8803;SDS011;4438;50.890;4.726;2024-03-07T09:44:28;49.40;;;35.10;;
8803;SDS011;4438;50.890;4.726;2024-03-07T09:46:56;52.27;;;35.27;;
8803;SDS011;4438;50.890;4.726;2024-03-07T09:49:26;52.73;;;35.03;;
8803;SDS011;4438;50.890;4.726;2024-03-07T09:51:53;52.10;;;35.43;;
8803;SDS011;4438;50.890;4.726;2024-03-07T09:54:22;51.00;;;35.37;;
8803;SDS011;4438;50.890;4.726;2024-03-07T09:56:54;51.97;;;34.57;;
8803;SDS011;4438;50.890;4.726;2024-03-07T09:59:24;45.90;;;32.70;;
8803;SDS011;4438;50.890;4.726;2024-03-07T10:01:52;47.63;;;33.47;;
8803;SDS011;4438;50.890;4.726;2024-03-07T10:04:22;49.73;;;33.57;;
8803;SDS011;4438;50.890;4.726;2024-03-07T10:06:50;44.60;;;31.97;;
8803;SDS011;4438;50.890;4.726;2024-03-07T10:09:18;47.70;;;33.13;;
8803;SDS011;4438;50.890;4.726;2024-03-07T10:11:54;47.17;;;34.57;;
8803;SDS011;4438;50.890;4.726;2024-03-07T10:14:21;45.10;;;31.77;;
8803;SDS011;4438;50.890;4.726;2024-03-07T10:16:47;45.37;;;32.17;;
8803;SDS011;4438;50.890;4.726;2024-03-07T10:19:13;40.77;;;29.60;;
8803;SDS011;4438;50.890;4.726;2024-03-07T10:21:40;46.67;;;30.83;;
8803;SDS011;4438;50.890;4.726;2024-03-07T10:24:06;46.87;;;31.70;;
8803;SDS011;4438;50.890;4.726;2024-03-07T10:26:36;40.93;;;30.90;;
8803;SDS011;4438;50.890;4.726;2024-03-07T10:29:03;44.33;;;31.13;;
8803;SDS011;4438;50.890;4.726;2024-03-07T10:31:31;41.57;;;29.90;;
8803;SDS011;4438;50.890;4.726;2024-03-07T10:34:00;42.73;;;31.10;;
8803;SDS011;4438;50.890;4.726;2024-03-07T10:36:28;38.53;;;28.47;;
8803;SDS011;4438;50.890;4.726;2024-03-07T10:38:57;39.37;;;28.90;;
8803;SDS011;4438;50.890;4.726;2024-03-07T10:41:26;40.00;;;30.17;;
8803;SDS011;4438;50.890;4.726;2024-03-07T10:43:56;42.60;;;31.70;;
8803;SDS011;4438;50.890;4.726;2024-03-07T10:46:25;39.93;;;30.60;;
8803;SDS011;4438;50.890;4.726;2024-03-07T10:48:54;40.90;;;29.37;;
8803;SDS011;4438;50.890;4.726;2024-03-07T10:51:24;36.77;;;29.43;;
8803;SDS011;4438;50.890;4.726;2024-03-07T11:01:30;35.57;;;28.80;;
8803;SDS011;4438;50.890;4.726;2024-03-07T11:04:00;36.60;;;28.90;;
8803;SDS011;4438;50.890;4.726;2024-03-07T11:06:30;39.30;;;29.57;;
8803;SDS011;4438;50.890;4.726;2024-03-07T11:08:59;33.97;;;27.57;;
8803;SDS011;4438;50.890;4.726;2024-03-07T11:11:28;31.60;;;26.43;;
8803;SDS011;4438;50.890;4.726;2024-03-07T11:13:56;34.83;;;28.23;;
8803;SDS011;4438;50.890;4.726;2024-03-07T11:16:24;37.20;;;28.73;;
8803;SDS011;4438;50.890;4.726;2024-03-07T11:21:42;33.60;;;27.20;;
8803;SDS011;4438;50.890;4.726;2024-03-07T11:24:08;32.90;;;26.70;;
8803;SDS011;4438;50.890;4.726;2024-03-07T11:26:34;34.40;;;26.90;;
8803;SDS011;4438;50.890;4.726;2024-03-07T11:29:00;32.37;;;26.83;;
8803;SDS011;4438;50.890;4.726;2024-03-07T11:31:29;31.97;;;26.60;;
8803;SDS011;4438;50.890;4.726;2024-03-07T11:34:11;29.60;;;25.83;;
8803;SDS011;4438;50.890;4.726;2024-03-07T11:36:43;29.70;;;25.60;;
8803;SDS011;4438;50.890;4.726;2024-03-07T11:42:01;28.17;;;24.60;;
8803;SDS011;4438;50.890;4.726;2024-03-07T11:44:31;30.67;;;26.23;;
8803;SDS011;4438;50.890;4.726;2024-03-07T11:47:01;28.37;;;25.37;;
8803;SDS011;4438;50.890;4.726;2024-03-07T11:49:36;32.83;;;27.67;;
8803;SDS011;4438;50.890;4.726;2024-03-07T11:52:03;34.07;;;27.03;;
8803;SDS011;4438;50.890;4.726;2024-03-07T11:54:37;33.87;;;27.73;;
8803;SDS011;4438;50.890;4.726;2024-03-07T11:57:11;33.73;;;28.03;;
8803;SDS011;4438;50.890;4.726;2024-03-07T11:59:40;32.20;;;26.33;;
8803;SDS011;4438;50.890;4.726;2024-03-07T12:02:14;31.43;;;26.73;;
8803;SDS011;4438;50.890;4.726;2024-03-07T12:04:41;29.37;;;25.77;;
8803;SDS011;4438;50.890;4.726;2024-03-07T12:07:07;30.87;;;25.60;;
8803;SDS011;4438;50.890;4.726;2024-03-07T12:09:36;30.23;;;26.93;;
8803;SDS011;4438;50.890;4.726;2024-03-07T12:12:03;30.00;;;24.63;;
8803;SDS011;4438;50.890;4.726;2024-03-07T12:14:29;31.93;;;25.00;;
8803;SDS011;4438;50.890;4.726;2024-03-07T12:16:55;30.23;;;25.97;;
8803;SDS011;4438;50.890;4.726;2024-03-07T12:19:22;28.07;;;25.00;;
8803;SDS011;4438;50.890;4.726;2024-03-07T12:21:48;28.63;;;25.53;;
8803;SDS011;4438;50.890;4.726;2024-03-07T12:24:15;29.07;;;25.87;;
8803;SDS011;4438;50.890;4.726;2024-03-07T12:26:41;28.77;;;25.77;;
8803;SDS011;4438;50.890;4.726;2024-03-07T12:29:08;27.60;;;24.70;;
8803;SDS011;4438;50.890;4.726;2024-03-07T12:31:40;31.17;;;27.87;;
8803;SDS011;4438;50.890;4.726;2024-03-07T12:34:07;29.10;;;25.87;;
8803;SDS011;4438;50.890;4.726;2024-03-07T12:36:37;27.97;;;24.97;;
8803;SDS011;4438;50.890;4.726;2024-03-07T12:39:25;29.00;;;26.00;;
8803;SDS011;4438;50.890;4.726;2024-03-07T12:41:57;29.13;;;25.97;;
8803;SDS011;4438;50.890;4.726;2024-03-07T12:44:23;29.40;;;25.33;;
8803;SDS011;4438;50.890;4.726;2024-03-07T12:46:53;29.33;;;25.73;;
8803;SDS011;4438;50.890;4.726;2024-03-07T12:49:21;29.07;;;25.87;;
8803;SDS011;4438;50.890;4.726;2024-03-07T12:51:52;27.03;;;24.13;;
8803;SDS011;4438;50.890;4.726;2024-03-07T12:54:19;28.50;;;25.57;;
8803;SDS011;4438;50.890;4.726;2024-03-07T12:56:45;27.10;;;24.30;;
8803;SDS011;4438;50.890;4.726;2024-03-07T12:59:11;29.50;;;25.40;;
8803;SDS011;4438;50.890;4.726;2024-03-07T13:01:37;27.03;;;23.93;;
8803;SDS011;4438;50.890;4.726;2024-03-07T13:04:07;28.23;;;25.23;;
8803;SDS011;4438;50.890;4.726;2024-03-07T13:06:35;28.00;;;24.37;;
8803;SDS011;4438;50.890;4.726;2024-03-07T13:09:01;27.10;;;23.70;;
8803;SDS011;4438;50.890;4.726;2024-03-07T13:11:36;32.10;;;24.90;;
8803;SDS011;4438;50.890;4.726;2024-03-07T13:14:05;26.93;;;23.73;;
8803;SDS011;4438;50.890;4.726;2024-03-07T13:16:32;25.67;;;22.83;;
8803;SDS011;4438;50.890;4.726;2024-03-07T13:18:58;25.47;;;22.70;;
8803;SDS011;4438;50.890;4.726;2024-03-07T13:21:24;25.83;;;22.90;;
8803;SDS011;4438;50.890;4.726;2024-03-07T13:23:52;24.97;;;22.30;;
8803;SDS011;4438;50.890;4.726;2024-03-07T13:26:20;26.97;;;23.60;;
8803;SDS011;4438;50.890;4.726;2024-03-07T13:28:53;27.43;;;23.23;;
8803;SDS011;4438;50.890;4.726;2024-03-07T13:31:19;26.17;;;22.47;;
8803;SDS011;4438;50.890;4.726;2024-03-07T13:33:45;26.93;;;22.07;;
8803;SDS011;4438;50.890;4.726;2024-03-07T13:36:12;24.23;;;21.63;;
8803;SDS011;4438;50.890;4.726;2024-03-07T13:38:48;22.27;;;19.93;;
8803;SDS011;4438;50.890;4.726;2024-03-07T13:41:18;21.93;;;19.50;;
8803;SDS011;4438;50.890;4.726;2024-03-07T13:43:44;23.60;;;21.10;;
8803;SDS011;4438;50.890;4.726;2024-03-07T13:46:10;21.87;;;19.67;;
8803;SDS011;4438;50.890;4.726;2024-03-07T13:48:43;22.37;;;19.97;;
8803;SDS011;4438;50.890;4.726;2024-03-07T13:51:10;23.27;;;20.97;;
8803;SDS011;4438;50.890;4.726;2024-03-07T13:53:40;22.97;;;20.67;;
8803;SDS011;4438;50.890;4.726;2024-03-07T14:04:34;21.80;;;19.70;;
8803;SDS011;4438;50.890;4.726;2024-03-07T14:10:04;20.77;;;18.57;;
8803;SDS011;4438;50.890;4.726;2024-03-07T14:12:49;21.50;;;19.17;;
8803;SDS011;4438;50.890;4.726;2024-03-07T14:20:39;22.53;;;19.53;;
8803;SDS011;4438;50.890;4.726;2024-03-07T14:23:19;20.77;;;18.67;;
8803;SDS011;4438;50.890;4.726;2024-03-07T14:28:26;21.00;;;18.97;;
8803;SDS011;4438;50.890;4.726;2024-03-07T14:30:55;22.37;;;19.90;;
8803;SDS011;4438;50.890;4.726;2024-03-07T14:33:27;21.57;;;19.27;;
8803;SDS011;4438;50.890;4.726;2024-03-07T14:41:14;21.83;;;19.57;;
8803;SDS011;4438;50.890;4.726;2024-03-07T14:43:41;20.13;;;18.13;;
8803;SDS011;4438;50.890;4.726;2024-03-07T14:46:08;21.47;;;19.33;;
8803;SDS011;4438;50.890;4.726;2024-03-07T14:48:34;20.17;;;18.07;;
8803;SDS011;4438;50.890;4.726;2024-03-07T14:51:03;20.80;;;18.70;;
8803;SDS011;4438;50.890;4.726;2024-03-07T14:53:30;20.13;;;18.13;;
8803;SDS011;4438;50.890;4.726;2024-03-07T14:55:56;21.87;;;19.57;;
8803;SDS011;4438;50.890;4.726;2024-03-07T14:58:23;22.83;;;20.53;;
8803;SDS011;4438;50.890;4.726;2024-03-07T15:00:49;19.63;;;17.57;;
8803;SDS011;4438;50.890;4.726;2024-03-07T15:03:18;22.50;;;20.20;;
8803;SDS011;4438;50.890;4.726;2024-03-07T15:05:44;20.07;;;18.10;;
8803;SDS011;4438;50.890;4.726;2024-03-07T15:08:12;20.63;;;18.50;;
8803;SDS011;4438;50.890;4.726;2024-03-07T15:10:41;23.13;;;20.60;;
8803;SDS011;4438;50.890;4.726;2024-03-07T15:13:10;20.70;;;18.50;;
8803;SDS011;4438;50.890;4.726;2024-03-07T15:15:38;20.73;;;18.10;;
8803;SDS011;4438;50.890;4.726;2024-03-07T15:18:05;20.63;;;18.47;;
8803;SDS011;4438;50.890;4.726;2024-03-07T15:20:31;21.17;;;18.10;;
8803;SDS011;4438;50.890;4.726;2024-03-07T15:22:58;19.83;;;17.63;;
8803;SDS011;4438;50.890;4.726;2024-03-07T15:25:25;19.97;;;17.47;;
8803;SDS011;4438;50.890;4.726;2024-03-07T15:27:55;20.17;;;16.40;;